sensor_id;sensor_type;location;lat;lon;timestamp;P1;P2;P0
28647;PMS5003;17137;51.494;-0.262;2022-11-25T00:00:13;1;1;
28647;PMS5003;17137;51.494;-0.262;2022-11-25T00:00:44;1;1;
28647;PMS5003;17137;51.494;-0.262;2022-11-25T00:01:15;3;1;
28647;PMS5003;17137;51.494;-0.262;2022-11-25T00:01:47;3;1;
28647;PMS5003;17137;51.494;-0.262;2022-11-25T00:02:18;3;1;
28647;PMS5003;17137;51.494;-0.262;2022-11-25T00:02:48;3;1;
28647;PMS5003;17137;51.494;-0.262;2022-11-25T00:03:19;3;1;
28647;PMS5003;17137;51.494;-0.262;2022-11-25T00:03:49;3;1;
28647;PMS5003;17137;51.494;-0.262;2022-11-25T00:04:21;3;2;
28647;PMS5003;17137;51.494;-0.262;2022-11-25T00:04:51;3;2;
28647;PMS5003;17137;51.494;-0.262;2022-11-25T00:05:22;3;2;
28647;PMS5003;17137;51.494;-0.262;2022-11-25T00:05:54;2;1;
28647;PMS5003;17137;51.494;-0.262;2022-11-25T00:06:25;2;1;
28647;PMS5003;17137;51.494;-0.262;2022-11-25T00:06:56;2;1;
28647;PMS5003;17137;51.494;-0.262;2022-11-25T00:07:26;1;1;
28647;PMS5003;17137;51.494;-0.262;2022-11-25T00:07:57;1;1;
28647;PMS5003;17137;51.494;-0.262;2022-11-25T00:08:27;1;1;
28647;PMS5003;17137;51.494;-0.262;2022-11-25T00:08:58;1;1;
28647;PMS5003;17137;51.494;-0.262;2022-11-25T00:09:30;1;1;
28647;PMS5003;17137;51.494;-0.262;2022-11-25T00:10:01;1;1;
28647;PMS5003;17137;51.494;-0.262;2022-11-25T00:10:32;1;1;
28647;PMS5003;17137;51.494;-0.262;2022-11-25T00:11:03;1;1;
28647;PMS5003;17137;51.494;-0.262;2022-11-25T00:11:34;1;1;
28647;PMS5003;17137;51.494;-0.262;2022-11-25T00:12:06;1;1;
28647;PMS5003;17137;51.494;-0.262;2022-11-25T00:12:36;1;1;
28647;PMS5003;17137;51.494;-0.262;2022-11-25T00:13:07;1;1;
28647;PMS5003;17137;51.494;-0.262;2022-11-25T00:13:37;1;1;
28647;PMS5003;17137;51.494;-0.262;2022-11-25T00:14:09;1;1;
28647;PMS5003;17137;51.494;-0.262;2022-11-25T00:14:42;1;1;
28647;PMS5003;17137;51.494;-0.262;2022-11-25T00:15:12;1;1;
28647;PMS5003;17137;51.494;-0.262;2022-11-25T00:15:43;1;1;
28647;PMS5003;17137;51.494;-0.262;2022-11-25T00:16:14;1;1;
28647;PMS5003;17137;51.494;-0.262;2022-11-25T00:16:47;1;1;
28647;PMS5003;17137;51.494;-0.262;2022-11-25T00:17:17;1;1;
28647;PMS5003;17137;51.494;-0.262;2022-11-25T00:17:47;0;0;
28647;PMS5003;17137;51.494;-0.262;2022-11-25T00:18:18;0;0;
28647;PMS5003;17137;51.494;-0.262;2022-11-25T00:18:49;1;1;
28647;PMS5003;17137;51.494;-0.262;2022-11-25T00:19:21;1;1;
28647;PMS5003;17137;51.494;-0.262;2022-11-25T00:19:51;1;1;
28647;PMS5003;17137;51.494;-0.262;2022-11-25T00:20:22;1;1;
28647;PMS5003;17137;51.494;-0.262;2022-11-25T00:20:52;1;1;
28647;PMS5003;17137;51.494;-0.262;2022-11-25T00:21:30;1;1;
28647;PMS5003;17137;51.494;-0.262;2022-11-25T00:22:02;1;1;
28647;PMS5003;17137;51.494;-0.262;2022-11-25T00:22:32;1;1;
28647;PMS5003;17137;51.494;-0.262;2022-11-25T00:23:03;1;1;
28647;PMS5003;17137;51.494;-0.262;2022-11-25T00:23:33;0;0;
28647;PMS5003;17137;51.494;-0.262;2022-11-25T00:24:05;0;0;
28647;PMS5003;17137;51.494;-0.262;2022-11-25T00:24:36;0;0;
28647;PMS5003;17137;51.494;-0.262;2022-11-25T00:25:06;0;0;
28647;PMS5003;17137;51.494;-0.262;2022-11-25T00:25:37;0;0;
28647;PMS5003;17137;51.494;-0.262;2022-11-25T00:26:08;0;0;
28647;PMS5003;17137;51.494;-0.262;2022-11-25T00:26:39;0;0;
28647;PMS5003;17137;51.494;-0.262;2022-11-25T00:27:10;0;0;
28647;PMS5003;17137;51.494;-0.262;2022-11-25T00:27:40;0;0;
28647;PMS5003;17137;51.494;-0.262;2022-11-25T00:28:10;0;0;
28647;PMS5003;17137;51.494;-0.262;2022-11-25T00:28:41;0;0;
28647;PMS5003;17137;51.494;-0.262;2022-11-25T00:29:18;0;0;
28647;PMS5003;17137;51.494;-0.262;2022-11-25T00:29:48;0;0;
28647;PMS5003;17137;51.494;-0.262;2022-11-25T00:30:19;0;0;
28647;PMS5003;17137;51.494;-0.262;2022-11-25T00:30:54;0;0;
28647;PMS5003;17137;51.494;-0.262;2022-11-25T00:31:32;0;0;
28647;PMS5003;17137;51.494;-0.262;2022-11-25T00:32:04;0;0;
28647;PMS5003;17137;51.494;-0.262;2022-11-25T00:32:34;0;0;
28647;PMS5003;17137;51.494;-0.262;2022-11-25T00:33:04;0;0;
28647;PMS5003;17137;51.494;-0.262;2022-11-25T00:33:35;0;0;
28647;PMS5003;17137;51.494;-0.262;2022-11-25T00:34:08;0;0;
28647;PMS5003;17137;51.494;-0.262;2022-11-25T00:34:41;0;0;
28647;PMS5003;17137;51.494;-0.262;2022-11-25T00:35:11;0;0;
28647;PMS5003;17137;51.494;-0.262;2022-11-25T00:35:42;0;0;
28647;PMS5003;17137;51.494;-0.262;2022-11-25T00:36:14;0;0;
28647;PMS5003;17137;51.494;-0.262;2022-11-25T00:36:46;0;0;
28647;PMS5003;17137;51.494;-0.262;2022-11-25T00:37:16;1;1;
28647;PMS5003;17137;51.494;-0.262;2022-11-25T00:37:46;1;1;
28647;PMS5003;17137;51.494;-0.262;2022-11-25T00:38:17;1;1;
28647;PMS5003;17137;51.494;-0.262;2022-11-25T00:38:51;1;1;
28647;PMS5003;17137;51.494;-0.262;2022-11-25T00:39:22;1;1;
28647;PMS5003;17137;51.494;-0.262;2022-11-25T00:39:52;1;1;
28647;PMS5003;17137;51.494;-0.262;2022-11-25T00:40:23;1;1;
28647;PMS5003;17137;51.494;-0.262;2022-11-25T00:40:53;1;1;
28647;PMS5003;17137;51.494;-0.262;2022-11-25T00:41:24;1;1;
28647;PMS5003;17137;51.494;-0.262;2022-11-25T00:41:55;1;1;
28647;PMS5003;17137;51.494;-0.262;2022-11-25T00:42:25;1;1;
28647;PMS5003;17137;51.494;-0.262;2022-11-25T00:42:55;0;0;
28647;PMS5003;17137;51.494;-0.262;2022-11-25T00:43:26;0;0;
28647;PMS5003;17137;51.494;-0.262;2022-11-25T00:43:57;0;0;
28647;PMS5003;17137;51.494;-0.262;2022-11-25T00:44:28;0;0;
28647;PMS5003;17137;51.494;-0.262;2022-11-25T00:44:58;2;0;
28647;PMS5003;17137;51.494;-0.262;2022-11-25T00:45:29;2;0;
28647;PMS5003;17137;51.494;-0.262;2022-11-25T00:45:59;2;0;
28647;PMS5003;17137;51.494;-0.262;2022-11-25T00:46:30;2;1;
28647;PMS5003;17137;51.494;-0.262;2022-11-25T00:47:00;2;1;
28647;PMS5003;17137;51.494;-0.262;2022-11-25T00:47:32;2;1;
28647;PMS5003;17137;51.494;-0.262;2022-11-25T00:48:03;3;1;
28647;PMS5003;17137;51.494;-0.262;2022-11-25T00:48:33;3;1;
28647;PMS5003;17137;51.494;-0.262;2022-11-25T00:49:04;3;1;
28647;PMS5003;17137;51.494;-0.262;2022-11-25T00:49:34;3;1;
28647;PMS5003;17137;51.494;-0.262;2022-11-25T00:50:06;3;1;
28647;PMS5003;17137;51.494;-0.262;2022-11-25T00:50:37;3;1;
28647;PMS5003;17137;51.494;-0.262;2022-11-25T00:51:07;0;0;
28647;PMS5003;17137;51.494;-0.262;2022-11-25T00:51:38;0;0;
28647;PMS5003;17137;51.494;-0.262;2022-11-25T00:52:09;0;0;
28647;PMS5003;17137;51.494;-0.262;2022-11-25T00:52:42;0;0;
28647;PMS5003;17137;51.494;-0.262;2022-11-25T00:53:12;0;0;
28647;PMS5003;17137;51.494;-0.262;2022-11-25T00:53:43;0;0;
28647;PMS5003;17137;51.494;-0.262;2022-11-25T00:54:13;0;0;
28647;PMS5003;17137;51.494;-0.262;2022-11-25T00:54:44;0;0;
28647;PMS5003;17137;51.494;-0.262;2022-11-25T00:55:15;0;0;
28647;PMS5003;17137;51.494;-0.262;2022-11-25T00:55:46;0;0;
28647;PMS5003;17137;51.494;-0.262;2022-11-25T00:56:16;0;0;
28647;PMS5003;17137;51.494;-0.262;2022-11-25T00:56:47;0;0;
28647;PMS5003;17137;51.494;-0.262;2022-11-25T00:57:18;0;0;
28647;PMS5003;17137;51.494;-0.262;2022-11-25T00:57:50;0;0;
28647;PMS5003;17137;51.494;-0.262;2022-11-25T00:58:20;0;0;
28647;PMS5003;17137;51.494;-0.262;2022-11-25T00:58:51;0;0;
28647;PMS5003;17137;51.494;-0.262;2022-11-25T00:59:22;3;1;
28647;PMS5003;17137;51.494;-0.262;2022-11-25T00:59:53;1;1;
28647;PMS5003;17137;51.494;-0.262;2022-11-25T01:00:23;1;1;
28647;PMS5003;17137;51.494;-0.262;2022-11-25T01:00:54;1;1;
28647;PMS5003;17137;51.494;-0.262;2022-11-25T01:01:24;1;1;
28647;PMS5003;17137;51.494;-0.262;2022-11-25T01:01:55;1;1;
28647;PMS5003;17137;51.494;-0.262;2022-11-25T01:02:25;1;1;
28647;PMS5003;17137;51.494;-0.262;2022-11-25T01:02:56;1;1;
28647;PMS5003;17137;51.494;-0.262;2022-11-25T01:03:26;1;1;
28647;PMS5003;17137;51.494;-0.262;2022-11-25T01:03:57;1;1;
28647;PMS5003;17137;51.494;-0.262;2022-11-25T01:04:27;1;1;
28647;PMS5003;17137;51.494;-0.262;2022-11-25T01:04:57;1;1;
28647;PMS5003;17137;51.494;-0.262;2022-11-25T01:05:28;1;1;
28647;PMS5003;17137;51.494;-0.262;2022-11-25T01:05:59;1;1;
28647;PMS5003;17137;51.494;-0.262;2022-11-25T01:06:31;1;1;
28647;PMS5003;17137;51.494;-0.262;2022-11-25T01:07:01;1;1;
28647;PMS5003;17137;51.494;-0.262;2022-11-25T01:07:32;3;1;
28647;PMS5003;17137;51.494;-0.262;2022-11-25T01:08:02;3;1;
28647;PMS5003;17137;51.494;-0.262;2022-11-25T01:08:33;3;1;
28647;PMS5003;17137;51.494;-0.262;2022-11-25T01:09:06;3;1;
28647;PMS5003;17137;51.494;-0.262;2022-11-25T01:09:37;3;1;
28647;PMS5003;17137;51.494;-0.262;2022-11-25T01:10:08;3;1;
28647;PMS5003;17137;51.494;-0.262;2022-11-25T01:10:39;3;1;
28647;PMS5003;17137;51.494;-0.262;2022-11-25T01:11:10;3;1;
28647;PMS5003;17137;51.494;-0.262;2022-11-25T01:11:41;3;1;
28647;PMS5003;17137;51.494;-0.262;2022-11-25T01:12:12;3;1;
28647;PMS5003;17137;51.494;-0.262;2022-11-25T01:12:45;1;1;
28647;PMS5003;17137;51.494;-0.262;2022-11-25T01:13:16;1;1;
28647;PMS5003;17137;51.494;-0.262;2022-11-25T01:13:47;1;1;
28647;PMS5003;17137;51.494;-0.262;2022-11-25T01:14:18;1;1;
28647;PMS5003;17137;51.494;-0.262;2022-11-25T01:14:49;1;1;
28647;PMS5003;17137;51.494;-0.262;2022-11-25T01:15:20;1;1;
28647;PMS5003;17137;51.494;-0.262;2022-11-25T01:15:50;1;1;
28647;PMS5003;17137;51.494;-0.262;2022-11-25T01:16:21;1;1;
28647;PMS5003;17137;51.494;-0.262;2022-11-25T01:16:52;1;1;
28647;PMS5003;17137;51.494;-0.262;2022-11-25T01:17:22;1;1;
28647;PMS5003;17137;51.494;-0.262;2022-11-25T01:17:53;1;1;
28647;PMS5003;17137;51.494;-0.262;2022-11-25T01:18:23;1;1;
28647;PMS5003;17137;51.494;-0.262;2022-11-25T01:18:53;1;1;
28647;PMS5003;17137;51.494;-0.262;2022-11-25T01:19:24;1;1;
28647;PMS5003;17137;51.494;-0.262;2022-11-25T01:19:55;1;1;
28647;PMS5003;17137;51.494;-0.262;2022-11-25T01:20:25;1;1;
28647;PMS5003;17137;51.494;-0.262;2022-11-25T01:21:03;2;2;
28647;PMS5003;17137;51.494;-0.262;2022-11-25T01:21:34;2;2;
28647;PMS5003;17137;51.494;-0.262;2022-11-25T01:22:05;2;2;
28647;PMS5003;17137;51.494;-0.262;2022-11-25T01:22:35;2;2;
28647;PMS5003;17137;51.494;-0.262;2022-11-25T01:23:06;2;2;
28647;PMS5003;17137;51.494;-0.262;2022-11-25T01:23:36;2;2;
28647;PMS5003;17137;51.494;-0.262;2022-11-25T01:24:08;0;0;
28647;PMS5003;17137;51.494;-0.262;2022-11-25T01:24:40;0;0;
28647;PMS5003;17137;51.494;-0.262;2022-11-25T01:25:15;0;0;
28647;PMS5003;17137;51.494;-0.262;2022-11-25T01:25:46;0;0;
28647;PMS5003;17137;51.494;-0.262;2022-11-25T01:26:17;0;0;
28647;PMS5003;17137;51.494;-0.262;2022-11-25T01:26:49;0;0;
28647;PMS5003;17137;51.494;-0.262;2022-11-25T01:27:19;1;1;
28647;PMS5003;17137;51.494;-0.262;2022-11-25T01:27:50;1;1;
28647;PMS5003;17137;51.494;-0.262;2022-11-25T01:28:20;1;1;
28647;PMS5003;17137;51.494;-0.262;2022-11-25T01:28:52;1;1;
28647;PMS5003;17137;51.494;-0.262;2022-11-25T01:29:24;1;1;
28647;PMS5003;17137;51.494;-0.262;2022-11-25T01:29:54;1;1;
28647;PMS5003;17137;51.494;-0.262;2022-11-25T01:30:24;0;0;
28647;PMS5003;17137;51.494;-0.262;2022-11-25T01:30:59;0;0;
28647;PMS5003;17137;51.494;-0.262;2022-11-25T01:31:31;0;0;
28647;PMS5003;17137;51.494;-0.262;2022-11-25T01:32:03;0;0;
28647;PMS5003;17137;51.494;-0.262;2022-11-25T01:32:33;1;1;
28647;PMS5003;17137;51.494;-0.262;2022-11-25T01:33:04;1;1;
28647;PMS5003;17137;51.494;-0.262;2022-11-25T01:33:35;1;1;
28647;PMS5003;17137;51.494;-0.262;2022-11-25T01:34:07;1;1;
28647;PMS5003;17137;51.494;-0.262;2022-11-25T01:34:41;1;1;
28647;PMS5003;17137;51.494;-0.262;2022-11-25T01:35:12;1;1;
28647;PMS5003;17137;51.494;-0.262;2022-11-25T01:35:42;1;1;
28647;PMS5003;17137;51.494;-0.262;2022-11-25T01:36:13;1;1;
28647;PMS5003;17137;51.494;-0.262;2022-11-25T01:36:45;1;1;
28647;PMS5003;17137;51.494;-0.262;2022-11-25T01:37:16;1;1;
28647;PMS5003;17137;51.494;-0.262;2022-11-25T01:37:51;1;1;
28647;PMS5003;17137;51.494;-0.262;2022-11-25T01:38:22;1;1;
28647;PMS5003;17137;51.494;-0.262;2022-11-25T01:38:53;1;1;
28647;PMS5003;17137;51.494;-0.262;2022-11-25T01:39:25;1;1;
28647;PMS5003;17137;51.494;-0.262;2022-11-25T01:39:55;1;1;
28647;PMS5003;17137;51.494;-0.262;2022-11-25T01:40:25;1;1;
28647;PMS5003;17137;51.494;-0.262;2022-11-25T01:40:56;0;0;
28647;PMS5003;17137;51.494;-0.262;2022-11-25T01:41:28;0;0;
28647;PMS5003;17137;51.494;-0.262;2022-11-25T01:42:00;0;0;
28647;PMS5003;17137;51.494;-0.262;2022-11-25T01:42:31;0;0;
28647;PMS5003;17137;51.494;-0.262;2022-11-25T01:43:01;0;0;
28647;PMS5003;17137;51.494;-0.262;2022-11-25T01:43:32;0;0;
28647;PMS5003;17137;51.494;-0.262;2022-11-25T01:44:04;0;0;
28647;PMS5003;17137;51.494;-0.262;2022-11-25T01:44:39;0;0;
28647;PMS5003;17137;51.494;-0.262;2022-11-25T01:45:43;0;0;
28647;PMS5003;17137;51.494;-0.262;2022-11-25T01:46:17;0;0;
28647;PMS5003;17137;51.494;-0.262;2022-11-25T01:46:53;0;0;
28647;PMS5003;17137;51.494;-0.262;2022-11-25T01:47:27;0;0;
28647;PMS5003;17137;51.494;-0.262;2022-11-25T01:47:58;0;0;
28647;PMS5003;17137;51.494;-0.262;2022-11-25T01:48:36;1;1;
28647;PMS5003;17137;51.494;-0.262;2022-11-25T01:49:11;1;1;
28647;PMS5003;17137;51.494;-0.262;2022-11-25T01:49:47;1;1;
28647;PMS5003;17137;51.494;-0.262;2022-11-25T01:50:24;2;0;
28647;PMS5003;17137;51.494;-0.262;2022-11-25T01:50:56;2;0;
28647;PMS5003;17137;51.494;-0.262;2022-11-25T01:51:27;2;0;
28647;PMS5003;17137;51.494;-0.262;2022-11-25T01:52:08;2;0;
28647;PMS5003;17137;51.494;-0.262;2022-11-25T01:52:45;0;0;
28647;PMS5003;17137;51.494;-0.262;2022-11-25T01:53:19;0;0;
28647;PMS5003;17137;51.494;-0.262;2022-11-25T01:53:51;0;0;
28647;PMS5003;17137;51.494;-0.262;2022-11-25T01:54:28;0;0;
28647;PMS5003;17137;51.494;-0.262;2022-11-25T01:55:05;0;0;
28647;PMS5003;17137;51.494;-0.262;2022-11-25T01:55:42;0;0;
28647;PMS5003;17137;51.494;-0.262;2022-11-25T01:56:16;0;0;
28647;PMS5003;17137;51.494;-0.262;2022-11-25T01:56:48;0;0;
28647;PMS5003;17137;51.494;-0.262;2022-11-25T01:57:23;0;0;
28647;PMS5003;17137;51.494;-0.262;2022-11-25T01:57:57;0;0;
28647;PMS5003;17137;51.494;-0.262;2022-11-25T01:58:31;0;0;
28647;PMS5003;17137;51.494;-0.262;2022-11-25T01:59:05;0;0;
28647;PMS5003;17137;51.494;-0.262;2022-11-25T01:59:36;2;1;
28647;PMS5003;17137;51.494;-0.262;2022-11-25T02:00:11;2;1;
28647;PMS5003;17137;51.494;-0.262;2022-11-25T02:00:42;2;1;
28647;PMS5003;17137;51.494;-0.262;2022-11-25T02:01:13;2;1;
28647;PMS5003;17137;51.494;-0.262;2022-11-25T02:01:45;2;1;
28647;PMS5003;17137;51.494;-0.262;2022-11-25T02:02:15;2;1;
28647;PMS5003;17137;51.494;-0.262;2022-11-25T02:02:48;3;1;
28647;PMS5003;17137;51.494;-0.262;2022-11-25T02:03:21;3;1;
28647;PMS5003;17137;51.494;-0.262;2022-11-25T02:03:56;3;1;
28647;PMS5003;17137;51.494;-0.262;2022-11-25T02:04:31;3;1;
28647;PMS5003;17137;51.494;-0.262;2022-11-25T02:05:06;3;1;
28647;PMS5003;17137;51.494;-0.262;2022-11-25T02:05:41;3;1;
28647;PMS5003;17137;51.494;-0.262;2022-11-25T02:06:19;3;1;
28647;PMS5003;17137;51.494;-0.262;2022-11-25T02:06:53;3;1;
28647;PMS5003;17137;51.494;-0.262;2022-11-25T02:07:29;3;1;
28647;PMS5003;17137;51.494;-0.262;2022-11-25T02:08:03;3;1;
28647;PMS5003;17137;51.494;-0.262;2022-11-25T02:08:36;1;1;
28647;PMS5003;17137;51.494;-0.262;2022-11-25T02:09:08;1;1;
28647;PMS5003;17137;51.494;-0.262;2022-11-25T02:09:40;1;1;
28647;PMS5003;17137;51.494;-0.262;2022-11-25T02:10:15;1;1;
28647;PMS5003;17137;51.494;-0.262;2022-11-25T02:10:50;1;1;
28647;PMS5003;17137;51.494;-0.262;2022-11-25T02:11:23;1;1;
28647;PMS5003;17137;51.494;-0.262;2022-11-25T02:11:57;1;1;
28647;PMS5003;17137;51.494;-0.262;2022-11-25T02:12:28;1;1;
28647;PMS5003;17137;51.494;-0.262;2022-11-25T02:12:59;1;1;
28647;PMS5003;17137;51.494;-0.262;2022-11-25T02:13:30;1;1;
28647;PMS5003;17137;51.494;-0.262;2022-11-25T02:14:01;1;1;
28647;PMS5003;17137;51.494;-0.262;2022-11-25T02:14:33;1;1;
28647;PMS5003;17137;51.494;-0.262;2022-11-25T02:15:04;1;1;
28647;PMS5003;17137;51.494;-0.262;2022-11-25T02:15:36;1;1;
28647;PMS5003;17137;51.494;-0.262;2022-11-25T02:16:06;1;1;
28647;PMS5003;17137;51.494;-0.262;2022-11-25T02:16:37;1;1;
28647;PMS5003;17137;51.494;-0.262;2022-11-25T02:17:07;1;1;
28647;PMS5003;17137;51.494;-0.262;2022-11-25T02:17:38;1;1;
28647;PMS5003;17137;51.494;-0.262;2022-11-25T02:18:09;1;1;
28647;PMS5003;17137;51.494;-0.262;2022-11-25T02:18:39;1;1;
28647;PMS5003;17137;51.494;-0.262;2022-11-25T02:19:11;1;1;
28647;PMS5003;17137;51.494;-0.262;2022-11-25T02:19:55;1;1;
28647;PMS5003;17137;51.494;-0.262;2022-11-25T02:20:29;1;1;
28647;PMS5003;17137;51.494;-0.262;2022-11-25T02:21:00;1;1;
28647;PMS5003;17137;51.494;-0.262;2022-11-25T02:21:33;1;1;
28647;PMS5003;17137;51.494;-0.262;2022-11-25T02:22:09;1;1;
28647;PMS5003;17137;51.494;-0.262;2022-11-25T02:22:48;1;1;
28647;PMS5003;17137;51.494;-0.262;2022-11-25T02:23:27;1;1;
28647;PMS5003;17137;51.494;-0.262;2022-11-25T02:24:06;2;2;
28647;PMS5003;17137;51.494;-0.262;2022-11-25T02:24:44;2;2;
28647;PMS5003;17137;51.494;-0.262;2022-11-25T02:25:16;2;2;
28647;PMS5003;17137;51.494;-0.262;2022-11-25T02:25:48;1;1;
28647;PMS5003;17137;51.494;-0.262;2022-11-25T02:26:19;2;1;
28647;PMS5003;17137;51.494;-0.262;2022-11-25T02:26:50;2;1;
28647;PMS5003;17137;51.494;-0.262;2022-11-25T02:27:20;2;1;
28647;PMS5003;17137;51.494;-0.262;2022-11-25T02:27:54;2;1;
28647;PMS5003;17137;51.494;-0.262;2022-11-25T02:28:28;2;1;
28647;PMS5003;17137;51.494;-0.262;2022-11-25T02:29:00;3;2;
28647;PMS5003;17137;51.494;-0.262;2022-11-25T02:29:31;3;2;
28647;PMS5003;17137;51.494;-0.262;2022-11-25T02:30:02;3;2;
28647;PMS5003;17137;51.494;-0.262;2022-11-25T02:30:33;2;1;
28647;PMS5003;17137;51.494;-0.262;2022-11-25T02:31:05;2;1;
28647;PMS5003;17137;51.494;-0.262;2022-11-25T02:31:36;2;1;
28647;PMS5003;17137;51.494;-0.262;2022-11-25T02:32:06;2;1;
28647;PMS5003;17137;51.494;-0.262;2022-11-25T02:32:41;2;1;
28647;PMS5003;17137;51.494;-0.262;2022-11-25T02:33:12;2;1;
28647;PMS5003;17137;51.494;-0.262;2022-11-25T02:33:42;1;1;
28647;PMS5003;17137;51.494;-0.262;2022-11-25T02:34:13;1;1;
28647;PMS5003;17137;51.494;-0.262;2022-11-25T02:34:46;3;2;
28647;PMS5003;17137;51.494;-0.262;2022-11-25T02:35:26;3;2;
28647;PMS5003;17137;51.494;-0.262;2022-11-25T02:35:59;3;2;
28647;PMS5003;17137;51.494;-0.262;2022-11-25T02:36:33;3;2;
28647;PMS5003;17137;51.494;-0.262;2022-11-25T02:37:03;3;2;
28647;PMS5003;17137;51.494;-0.262;2022-11-25T02:37:34;3;2;
28647;PMS5003;17137;51.494;-0.262;2022-11-25T02:38:06;4;3;
28647;PMS5003;17137;51.494;-0.262;2022-11-25T02:38:39;4;3;
28647;PMS5003;17137;51.494;-0.262;2022-11-25T02:39:13;4;3;
28647;PMS5003;17137;51.494;-0.262;2022-11-25T02:39:45;4;3;
28647;PMS5003;17137;51.494;-0.262;2022-11-25T02:40:17;4;3;
28647;PMS5003;17137;51.494;-0.262;2022-11-25T02:40:49;4;3;
28647;PMS5003;17137;51.494;-0.262;2022-11-25T02:41:24;5;3;
28647;PMS5003;17137;51.494;-0.262;2022-11-25T02:41:57;5;3;
28647;PMS5003;17137;51.494;-0.262;2022-11-25T02:42:28;5;3;
28647;PMS5003;17137;51.494;-0.262;2022-11-25T02:42:59;4;2;
28647;PMS5003;17137;51.494;-0.262;2022-11-25T02:43:30;2;1;
28647;PMS5003;17137;51.494;-0.262;2022-11-25T02:44:01;3;1;
28647;PMS5003;17137;51.494;-0.262;2022-11-25T02:44:33;3;1;
28647;PMS5003;17137;51.494;-0.262;2022-11-25T02:45:04;3;1;
28647;PMS5003;17137;51.494;-0.262;2022-11-25T02:45:43;3;1;
28647;PMS5003;17137;51.494;-0.262;2022-11-25T02:46:20;3;1;
28647;PMS5003;17137;51.494;-0.262;2022-11-25T02:46:51;3;1;
28647;PMS5003;17137;51.494;-0.262;2022-11-25T02:47:22;4;2;
28647;PMS5003;17137;51.494;-0.262;2022-11-25T02:47:52;4;2;
28647;PMS5003;17137;51.494;-0.262;2022-11-25T02:48:23;4;2;
28647;PMS5003;17137;51.494;-0.262;2022-11-25T02:48:54;2;2;
28647;PMS5003;17137;51.494;-0.262;2022-11-25T02:49:26;2;2;
28647;PMS5003;17137;51.494;-0.262;2022-11-25T02:49:56;2;2;
28647;PMS5003;17137;51.494;-0.262;2022-11-25T02:50:27;2;2;
28647;PMS5003;17137;51.494;-0.262;2022-11-25T02:50:57;2;2;
28647;PMS5003;17137;51.494;-0.262;2022-11-25T02:51:29;2;2;
28647;PMS5003;17137;51.494;-0.262;2022-11-25T02:52:01;4;2;
28647;PMS5003;17137;51.494;-0.262;2022-11-25T02:52:31;4;3;
28647;PMS5003;17137;51.494;-0.262;2022-11-25T02:53:02;4;3;
28647;PMS5003;17137;51.494;-0.262;2022-11-25T02:53:32;4;3;
28647;PMS5003;17137;51.494;-0.262;2022-11-25T02:54:03;3;3;
28647;PMS5003;17137;51.494;-0.262;2022-11-25T02:54:33;3;3;
28647;PMS5003;17137;51.494;-0.262;2022-11-25T02:55:04;3;3;
28647;PMS5003;17137;51.494;-0.262;2022-11-25T02:55:35;3;3;
28647;PMS5003;17137;51.494;-0.262;2022-11-25T02:56:06;3;3;
28647;PMS5003;17137;51.494;-0.262;2022-11-25T02:56:37;3;3;
28647;PMS5003;17137;51.494;-0.262;2022-11-25T02:57:08;3;3;
28647;PMS5003;17137;51.494;-0.262;2022-11-25T02:57:38;3;3;
28647;PMS5003;17137;51.494;-0.262;2022-11-25T02:58:08;3;3;
28647;PMS5003;17137;51.494;-0.262;2022-11-25T02:58:39;2;2;
28647;PMS5003;17137;51.494;-0.262;2022-11-25T02:59:10;2;2;
28647;PMS5003;17137;51.494;-0.262;2022-11-25T02:59:41;2;2;
28647;PMS5003;17137;51.494;-0.262;2022-11-25T03:00:12;2;1;
28647;PMS5003;17137;51.494;-0.262;2022-11-25T03:00:43;2;1;
28647;PMS5003;17137;51.494;-0.262;2022-11-25T03:01:14;2;0;
28647;PMS5003;17137;51.494;-0.262;2022-11-25T03:01:45;2;0;
28647;PMS5003;17137;51.494;-0.262;2022-11-25T03:02:15;2;0;
28647;PMS5003;17137;51.494;-0.262;2022-11-25T03:02:46;0;0;
28647;PMS5003;17137;51.494;-0.262;2022-11-25T03:03:20;0;0;
28647;PMS5003;17137;51.494;-0.262;2022-11-25T03:03:50;0;0;
28647;PMS5003;17137;51.494;-0.262;2022-11-25T03:04:21;1;1;
28647;PMS5003;17137;51.494;-0.262;2022-11-25T03:04:51;1;1;
28647;PMS5003;17137;51.494;-0.262;2022-11-25T03:05:22;1;1;
28647;PMS5003;17137;51.494;-0.262;2022-11-25T03:05:52;1;1;
28647;PMS5003;17137;51.494;-0.262;2022-11-25T03:06:23;1;1;
28647;PMS5003;17137;51.494;-0.262;2022-11-25T03:06:53;1;1;
28647;PMS5003;17137;51.494;-0.262;2022-11-25T03:07:24;1;1;
28647;PMS5003;17137;51.494;-0.262;2022-11-25T03:07:54;1;1;
28647;PMS5003;17137;51.494;-0.262;2022-11-25T03:08:25;5;3;
28647;PMS5003;17137;51.494;-0.262;2022-11-25T03:08:55;5;4;
28647;PMS5003;17137;51.494;-0.262;2022-11-25T03:09:26;5;4;
28647;PMS5003;17137;51.494;-0.262;2022-11-25T03:09:56;5;4;
28647;PMS5003;17137;51.494;-0.262;2022-11-25T03:10:27;5;3;
28647;PMS5003;17137;51.494;-0.262;2022-11-25T03:10:57;5;3;
28647;PMS5003;17137;51.494;-0.262;2022-11-25T03:11:28;5;3;
28647;PMS5003;17137;51.494;-0.262;2022-11-25T03:11:58;5;4;
28647;PMS5003;17137;51.494;-0.262;2022-11-25T03:12:29;5;4;
28647;PMS5003;17137;51.494;-0.262;2022-11-25T03:12:59;5;4;
28647;PMS5003;17137;51.494;-0.262;2022-11-25T03:13:30;6;4;
28647;PMS5003;17137;51.494;-0.262;2022-11-25T03:14:01;6;4;
28647;PMS5003;17137;51.494;-0.262;2022-11-25T03:14:32;6;4;
28647;PMS5003;17137;51.494;-0.262;2022-11-25T03:15:03;5;4;
28647;PMS5003;17137;51.494;-0.262;2022-11-25T03:15:34;5;4;
28647;PMS5003;17137;51.494;-0.262;2022-11-25T03:16:05;5;4;
28647;PMS5003;17137;51.494;-0.262;2022-11-25T03:16:36;11;7;
28647;PMS5003;17137;51.494;-0.262;2022-11-25T03:17:06;10;6;
28647;PMS5003;17137;51.494;-0.262;2022-11-25T03:17:37;10;6;
28647;PMS5003;17137;51.494;-0.262;2022-11-25T03:18:07;10;6;
28647;PMS5003;17137;51.494;-0.262;2022-11-25T03:18:38;11;6;
28647;PMS5003;17137;51.494;-0.262;2022-11-25T03:19:08;11;6;
28647;PMS5003;17137;51.494;-0.262;2022-11-25T03:19:38;11;6;
28647;PMS5003;17137;51.494;-0.262;2022-11-25T03:20:09;9;5;
28647;PMS5003;17137;51.494;-0.262;2022-11-25T03:20:41;9;5;
28647;PMS5003;17137;51.494;-0.262;2022-11-25T03:21:11;9;5;
28647;PMS5003;17137;51.494;-0.262;2022-11-25T03:21:41;8;4;
28647;PMS5003;17137;51.494;-0.262;2022-11-25T03:22:12;8;4;
28647;PMS5003;17137;51.494;-0.262;2022-11-25T03:22:42;8;4;
28647;PMS5003;17137;51.494;-0.262;2022-11-25T03:23:13;8;4;
28647;PMS5003;17137;51.494;-0.262;2022-11-25T03:23:43;8;4;
28647;PMS5003;17137;51.494;-0.262;2022-11-25T03:24:14;8;4;
28647;PMS5003;17137;51.494;-0.262;2022-11-25T03:24:44;4;2;
28647;PMS5003;17137;51.494;-0.262;2022-11-25T03:25:15;4;2;
28647;PMS5003;17137;51.494;-0.262;2022-11-25T03:25:46;4;2;
28647;PMS5003;17137;51.494;-0.262;2022-11-25T03:26:16;6;3;
28647;PMS5003;17137;51.494;-0.262;2022-11-25T03:26:47;6;3;
28647;PMS5003;17137;51.494;-0.262;2022-11-25T03:27:18;6;3;
28647;PMS5003;17137;51.494;-0.262;2022-11-25T03:27:48;6;4;
28647;PMS5003;17137;51.494;-0.262;2022-11-25T03:28:19;6;4;
28647;PMS5003;17137;51.494;-0.262;2022-11-25T03:28:49;6;4;
28647;PMS5003;17137;51.494;-0.262;2022-11-25T03:29:20;6;4;
28647;PMS5003;17137;51.494;-0.262;2022-11-25T03:29:50;6;4;
28647;PMS5003;17137;51.494;-0.262;2022-11-25T03:30:22;6;4;
28647;PMS5003;17137;51.494;-0.262;2022-11-25T03:30:53;6;4;
28647;PMS5003;17137;51.494;-0.262;2022-11-25T03:31:24;6;4;
28647;PMS5003;17137;51.494;-0.262;2022-11-25T03:31:54;6;4;
28647;PMS5003;17137;51.494;-0.262;2022-11-25T03:32:25;6;4;
28647;PMS5003;17137;51.494;-0.262;2022-11-25T03:32:55;6;6;
28647;PMS5003;17137;51.494;-0.262;2022-11-25T03:33:26;6;6;
28647;PMS5003;17137;51.494;-0.262;2022-11-25T03:33:56;6;6;